createdAt,value
2018-11-06T00:04:18.581Z,10.10
2018-11-06T00:09:22.084Z,10.10
2018-11-06T00:14:25.560Z,10.10
2018-11-06T00:19:29.049Z,10.10
2018-11-06T00:24:32.523Z,10.20
2018-11-06T00:29:36.140Z,10.20
2018-11-06T00:34:39.593Z,10.20
2018-11-06T00:39:43.056Z,10.20
2018-11-06T00:44:46.661Z,10.20
2018-11-06T00:49:50.131Z,10.20
2018-11-06T00:54:53.658Z,10.30
2018-11-06T00:59:57.814Z,10.20
2018-11-06T01:05:01.347Z,10.20
2018-11-06T01:10:06.330Z,10.20
2018-11-06T01:15:12.635Z,10.10
2018-11-06T01:20:17.700Z,10.10
2018-11-06T01:25:21.149Z,10.10
2018-11-06T01:30:24.586Z,10.10
2018-11-06T01:35:28.117Z,10.00
2018-11-06T01:40:31.532Z,10.00
2018-11-06T01:45:35.069Z,10.00
2018-11-06T01:50:38.676Z,9.90
2018-11-06T01:55:42.105Z,9.90
2018-11-06T02:00:45.760Z,9.80
2018-11-06T02:05:49.165Z,9.80
2018-11-06T02:10:52.632Z,9.70
2018-11-06T02:15:56.305Z,9.70
2018-11-06T02:21:00.029Z,9.60
2018-11-06T02:26:03.640Z,9.50
2018-11-06T02:31:07.089Z,9.50
2018-11-06T02:36:10.704Z,9.40
2018-11-06T02:41:14.401Z,9.30
2018-11-06T02:46:17.899Z,9.40
2018-11-06T02:51:21.373Z,9.30
2018-11-06T02:56:24.871Z,9.30
2018-11-06T03:01:28.382Z,9.30
2018-11-06T03:06:32.007Z,9.30
2018-11-06T03:11:35.610Z,9.20
2018-11-06T03:16:39.638Z,9.20
2018-11-06T03:21:43.120Z,9.20
2018-11-06T03:26:46.592Z,9.10
2018-11-06T03:31:50.292Z,9.20
2018-11-06T03:36:53.819Z,9.20
2018-11-06T03:41:57.343Z,9.10
2018-11-06T03:47:01.302Z,9.10
2018-11-06T03:52:05.147Z,9.00
2018-11-06T03:57:08.698Z,9.00
2018-11-06T04:02:12.160Z,8.90
2018-11-06T04:07:15.617Z,8.90
2018-11-06T04:12:19.123Z,9.00
2018-11-06T04:17:22.743Z,9.00
2018-11-06T04:22:26.170Z,9.10
2018-11-06T04:27:29.739Z,9.20
2018-11-06T04:32:33.177Z,9.10
2018-11-06T04:37:37.495Z,9.00
2018-11-06T04:42:40.933Z,9.10
2018-11-06T04:47:44.631Z,9.10
2018-11-06T04:52:48.058Z,9.20
2018-11-06T04:57:51.591Z,9.20
2018-11-06T05:02:55.247Z,9.10
2018-11-06T05:07:58.729Z,9.10
2018-11-06T05:13:02.239Z,9.20
2018-11-06T05:18:05.777Z,9.20
2018-11-06T05:23:09.643Z,9.20
2018-11-06T05:28:13.135Z,9.20
2018-11-06T05:33:16.660Z,9.20
2018-11-06T05:38:20.331Z,9.20
2018-11-06T05:43:24.422Z,9.10
2018-11-06T05:48:27.981Z,9.20
2018-11-06T05:53:31.473Z,9.20
2018-11-06T05:58:35.023Z,9.10
2018-11-06T06:03:38.669Z,9.10
2018-11-06T06:08:42.428Z,9.10
2018-11-06T06:13:45.905Z,9.10
2018-11-06T06:18:49.434Z,9.10
2018-11-06T06:23:52.948Z,9.10
2018-11-06T06:28:56.399Z,9.10
2018-11-06T06:33:59.923Z,9.10
2018-11-06T06:39:06.730Z,9.20
2018-11-06T06:44:10.731Z,9.30
2018-11-06T06:49:39.423Z,9.40
2018-11-06T06:54:43.586Z,9.50
2018-11-06T06:59:46.956Z,9.50
2018-11-06T07:04:50.430Z,9.40
2018-11-06T07:09:53.889Z,9.40
2018-11-06T07:14:57.402Z,9.40
2018-11-06T07:20:00.959Z,9.40
2018-11-06T07:25:05.859Z,9.40
2018-11-06T07:30:14.927Z,9.40
2018-11-06T07:35:19.254Z,9.40
2018-11-06T07:40:22.900Z,9.30
2018-11-06T07:45:26.592Z,9.30
2018-11-06T07:50:30.196Z,9.40
2018-11-06T07:55:33.698Z,9.40
2018-11-06T08:00:37.254Z,9.50
2018-11-06T08:05:40.866Z,9.30
2018-11-06T08:10:44.347Z,9.20
2018-11-06T08:15:47.845Z,9.30
2018-11-06T08:20:51.377Z,9.50
2018-11-06T08:25:54.853Z,9.80
2018-11-06T08:30:58.566Z,10.10
2018-11-06T08:36:01.896Z,10.10
2018-11-06T08:41:05.625Z,10.10
2018-11-06T08:46:09.260Z,10.20
2018-11-06T08:51:12.820Z,10.20
2018-11-06T08:56:16.418Z,10.20
2018-11-06T09:01:20.111Z,10.10
2018-11-06T09:06:23.656Z,10.10
2018-11-06T09:11:28.025Z,10.10
2018-11-06T09:16:32.522Z,10.10
2018-11-06T09:21:36.125Z,10.10
2018-11-06T09:26:39.662Z,10.20
2018-11-06T09:31:43.108Z,10.30
2018-11-06T09:36:46.600Z,10.40
2018-11-06T09:41:50.136Z,10.60
2018-11-06T09:46:53.631Z,10.70
2018-11-06T09:51:57.171Z,10.90
2018-11-06T09:57:01.179Z,11.10
2018-11-06T10:02:05.534Z,11.30
2018-11-06T10:07:09.623Z,11.50
2018-11-06T10:12:12.960Z,11.70
2018-11-06T10:17:16.553Z,11.90
2018-11-06T10:22:20.090Z,11.80
2018-11-06T10:27:23.587Z,11.80
2018-11-06T10:32:27.694Z,11.90
2018-11-06T10:37:31.178Z,11.90
2018-11-06T10:42:34.778Z,12.00
2018-11-06T10:47:39.116Z,12.00
2018-11-06T10:52:43.144Z,12.20
2018-11-06T10:57:46.611Z,12.30
2018-11-06T11:02:55.607Z,12.40
2018-11-06T11:07:59.075Z,12.60
2018-11-06T11:13:02.679Z,12.80
2018-11-06T11:18:06.229Z,13.30
2018-11-06T11:23:09.884Z,14.20
2018-11-06T11:28:13.463Z,14.10
2018-11-06T11:33:16.978Z,13.90
2018-11-06T11:38:20.529Z,13.60
2018-11-06T11:43:24.179Z,13.60
2018-11-06T11:48:27.629Z,14.00
2018-11-06T11:53:31.411Z,13.70
2018-11-06T11:58:34.904Z,13.40
2018-11-06T12:03:40.006Z,13.30
2018-11-06T12:08:43.934Z,13.30
2018-11-06T12:13:47.379Z,13.60
2018-11-06T12:18:50.943Z,13.70
2018-11-06T12:23:54.701Z,13.70
2018-11-06T12:28:58.196Z,13.80
2018-11-06T12:34:01.875Z,13.70
2018-11-06T12:39:08.834Z,13.70
2018-11-06T12:44:12.252Z,13.80
2018-11-06T12:49:16.918Z,13.90
2018-11-06T12:54:20.389Z,13.90
2018-11-06T12:59:24.216Z,14.00
2018-11-06T13:04:27.819Z,14.10
2018-11-06T13:09:31.318Z,14.20
2018-11-06T13:14:36.006Z,14.10
2018-11-06T13:19:39.580Z,14.20
2018-11-06T13:24:43.318Z,14.20
2018-11-06T13:29:46.860Z,14.30
2018-11-06T13:34:50.523Z,14.20
2018-11-06T13:39:54.149Z,14.30
2018-11-06T13:44:57.817Z,14.40
2018-11-06T13:50:01.190Z,14.50
2018-11-06T13:55:06.189Z,14.40
2018-11-06T14:00:16.021Z,14.50
2018-11-06T14:05:19.624Z,14.40
2018-11-06T14:10:23.985Z,14.40
2018-11-06T14:15:27.468Z,14.30
2018-11-06T14:20:30.984Z,14.30
2018-11-06T14:25:34.807Z,14.20
2018-11-06T14:30:38.339Z,14.20
2018-11-06T14:35:41.899Z,14.20
2018-11-06T14:40:45.407Z,14.20
2018-11-06T14:45:49.108Z,14.10
2018-11-06T14:50:52.715Z,14.10
2018-11-06T14:56:01.514Z,14.00
2018-11-06T15:01:05.163Z,13.90
2018-11-06T15:06:08.808Z,13.80
2018-11-06T15:11:12.316Z,13.70
2018-11-06T15:16:15.914Z,13.80
2018-11-06T15:21:19.522Z,13.80
2018-11-06T15:26:23.725Z,13.80
2018-11-06T15:31:28.800Z,13.70
2018-11-06T15:36:34.023Z,13.70
2018-11-06T15:41:39.516Z,13.60
2018-11-06T15:46:43.157Z,13.60
2018-11-06T15:51:46.752Z,14.30
2018-11-06T15:56:50.275Z,13.80
2018-11-06T16:01:53.730Z,13.70
2018-11-06T16:06:57.167Z,13.60
2018-11-06T16:12:00.662Z,13.70
2018-11-06T16:17:04.742Z,13.70
2018-11-06T16:22:08.440Z,13.70
2018-11-06T16:27:12.691Z,13.60
2018-11-06T16:32:17.389Z,13.60
2018-11-06T16:37:21.372Z,14.20
2018-11-06T16:42:25.943Z,13.70
2018-11-06T16:47:29.522Z,13.40
2018-11-06T16:52:35.084Z,13.20
2018-11-06T16:57:41.799Z,13.00
2018-11-06T17:02:46.747Z,12.80
2018-11-06T17:07:51.124Z,12.70
2018-11-06T17:12:54.697Z,12.50
2018-11-06T17:17:58.239Z,12.40
2018-11-06T17:23:01.844Z,12.40
2018-11-06T17:28:05.492Z,12.30
2018-11-06T17:33:09.030Z,12.20
2018-11-06T17:38:12.577Z,12.20
2018-11-06T17:43:16.197Z,12.20
2018-11-06T17:48:19.628Z,12.10
2018-11-06T17:53:23.236Z,12.10
2018-11-06T17:58:26.820Z,12.10
2018-11-06T18:03:30.914Z,12.10
2018-11-06T18:08:34.592Z,12.10
2018-11-06T18:13:38.240Z,12.10
2018-11-06T18:18:41.992Z,12.00
2018-11-06T18:23:45.593Z,11.90
2018-11-06T18:28:49.195Z,12.00
2018-11-06T18:33:52.695Z,12.00
2018-11-06T18:38:56.225Z,11.80
2018-11-06T18:43:59.757Z,11.90
2018-11-06T18:49:03.425Z,11.90
2018-11-06T18:54:06.939Z,11.90
2018-11-06T18:59:10.413Z,11.90
2018-11-06T19:04:14.145Z,11.80
2018-11-06T19:09:17.726Z,11.80
2018-11-06T19:14:21.214Z,11.70
2018-11-06T19:19:24.953Z,11.70
2018-11-06T19:24:28.480Z,11.70
2018-11-06T19:29:31.973Z,11.60
2018-11-06T19:34:35.696Z,11.60
2018-11-06T19:39:39.758Z,11.60
2018-11-06T19:44:43.414Z,11.50
2018-11-06T19:49:46.912Z,11.50
2018-11-06T19:54:50.432Z,11.50
2018-11-06T19:59:53.935Z,11.50
2018-11-06T20:04:57.457Z,11.50
2018-11-06T20:10:00.993Z,11.40
2018-11-06T20:15:06.695Z,11.40
2018-11-06T20:20:13.657Z,11.40
2018-11-06T20:25:17.439Z,11.40
2018-11-06T20:30:23.957Z,11.40
2018-11-06T20:35:27.627Z,11.40
2018-11-06T20:40:31.268Z,11.40
2018-11-06T20:45:34.844Z,11.40
2018-11-06T20:50:38.419Z,11.40
2018-11-06T20:55:42.566Z,11.40
2018-11-06T21:00:46.045Z,11.40
2018-11-06T21:05:49.681Z,11.40
2018-11-06T21:10:53.205Z,11.50
2018-11-06T21:15:56.548Z,11.60
2018-11-06T21:21:02.076Z,11.50
2018-11-06T21:26:06.542Z,11.50
2018-11-06T21:31:10.020Z,11.40
2018-11-06T21:36:13.623Z,11.40
2018-11-06T21:41:17.229Z,11.40
2018-11-06T21:46:21.035Z,11.40
2018-11-06T21:51:24.557Z,11.30
2018-11-06T21:56:28.116Z,11.30
2018-11-06T22:01:31.682Z,11.20
2018-11-06T22:06:35.335Z,11.90
2018-11-06T22:11:38.788Z,11.40
2018-11-06T22:16:42.260Z,11.20
2018-11-06T22:29:23.648Z,11.10
2018-11-06T22:34:27.309Z,11.10
2018-11-06T22:39:30.813Z,11.20
2018-11-06T22:49:52.403Z,11.10
2018-11-06T22:54:57.991Z,10.90
2018-11-06T23:00:01.641Z,11.00
2018-11-06T23:05:05.567Z,11.00
2018-11-06T23:10:09.416Z,10.90
2018-11-06T23:15:12.907Z,10.80
2018-11-06T23:20:16.458Z,10.80
2018-11-06T23:25:20.072Z,10.80
2018-11-06T23:30:23.567Z,10.90
2018-11-06T23:35:27.268Z,10.90
2018-11-06T23:40:30.773Z,10.90
2018-11-06T23:45:34.294Z,10.90
2018-11-06T23:50:37.738Z,10.90
2018-11-06T23:55:41.206Z,10.90
